Aviation Digital Data Service (ADDS)

Output produced by METARs form (1302 UTC 26 March 2019)
found at http://www.aviationweather.gov/metar/data/
 
RJSK 261200Z 29016KT 9999 FEW040 SCT045 04/M06 Q1010
TAF RJSK 261107Z 2612/2718 29015KT 9999 FEW020 SCT040 
     TEMPO 2612/2618 29020G30KT 
     TEMPO 2700/2706 29020G30KT 
     BECMG 2706/2709 32004KT 
     TEMPO 2706/2715 1500 -SNRA BR FEW005 BKN008 BKN015
       
RJKA 261000Z 33005KT 290V360 9999 FEW035 16/09 Q1020
RJSA 261200Z 23014KT 9999 -SHSN FEW020 SCT040 BKN050 01/M05 Q1007
TAF RJSA 261109Z 2612/2718 24015KT 9999 FEW020 BKN040 
     TEMPO 2612/2615 26020G30KT 
     TEMPO 2615/2618 3000 -SHSN 
     TEMPO 2700/2706 26020G30KT 
     TEMPO 2709/2712 3000 -SN
       
RJEC 261100Z 25011KT 9999 FEW020 SCT045 00/M05 Q1000
TAF RJEC 261109Z 2612/2718 21010KT 9999 FEW008 BKN015 
     TEMPO 2612/2621 2000 -SHSN FEW005 BKN008 
     BECMG 2619/2621 30016KT 
     TEMPO 2621/2703 30018G28KT 1500 -SHSN FEW003 BKN006 
     TEMPO 2703/2709 30018G28KT 3000 -SHSN 
     BECMG 2709/2712 32006KT
       
RJFE 261000Z VRB02KT 6000 FEW020 SCT/// 13/11 Q1019
RJFF 261230Z 11004KT 060V140 CAVOK 12/07 Q1020 NOSIG RMK A3012
TAF RJFF 261107Z 2612/2718 15006KT CAVOK 
     TEMPO 2703/2712 20015G25KT
       
RJSF 261200Z 35015G26KT 300V020 9999 FEW015 SCT020 BKN025 07/03 Q1009 RMK 1CU015 3CU020 7CU025 A2980
TAF RJSF 261107Z 2612/2718 32015KT 9999 FEW030 
     TEMPO 2614/2618 32025G35KT 
     TEMPO 2700/2706 32015G25KT 
     BECMG 2706/2709 20004KT
       
ROTM 261256Z 07004KT 10SM CLR A3021 RMK AO2 SLPNO PNO
TAF ROTM 2609/2709 35012KT 9999 SCT040 SCT110 QNH3011INS 
     TEMPO 2610/2616 01010G18KT 
     BECMG 2616/2618 10010KT 9999 FEW050 QNH3012INS 
     FM270000 17010KT 9999 FEW030 SCT080 QNH3005INS T17/2622Z T23/2705Z
       
RJNG 261051Z 33016G30KT 300V360 9999 FEW030 BKN050 11/04 Q1013 RMK 2CU030 6SC050 A2992
RJCH 261100Z 28012KT 9999 FEW020 SCT040 03/M05 Q1005
TAF RJCH 261114Z 2612/2718 28015KT 9999 FEW010 BKN025 
     BECMG 2618/2620 29020G30KT 
     BECMG 2709/2712 30010KT
       
RJSI 261000Z 28008KT 250V310 8000 FEW010 SCT040 BKN/// 06/M03 Q1007
RJOA 261200Z 32005KT 9999 FEW030 10/M01 Q1018
TAF RJOA 261105Z 2612/2718 30005KT 9999 FEW025 
     BECMG 2700/2703 24010KT
       
RJAH 261200Z 36003KT 9999 FEW030 07/03 Q1007
TAF RJAH 261107Z 2612/2718 33006KT 9999 FEW030 
     BECMG 2700/2703 22010KT
       
ROIG 261100Z 07009KT 9999 SCT030 20/14 Q1020
TAF ROIG 261115Z 2612/2718 08009KT 9999 FEW030 SCT040 
     BECMG 2621/2623 16010KT
       
RJOI 261255Z 28006KT 9999 SKC 12/02 A3009 RMK SLP190 T01170017
TAF RJOI 2613/2713 VRB05KT 9999 SKC QNH3008INS 
     FM262200 22008KT 9999 FEW030 QHN3008INS 
     BECMG 2701/2703 20010G20KT 9999 FEW030 SCT150 QNH2996INS 
     FM271000 23010KT 9999 FEW030 BKN120 QNH2987INS T07/2621Z T20/2705Z
       
RJOW 261000Z 19003KT 9000 FEW030 12/07 Q1018
RJAW 261200Z 32018G31KT 9999 FEW010 BKN015 22/19 Q1016 RMK 1CU010 7CU015 A3001
RJOC 261100Z 27005KT 8000 FEW030 10/05 Q1018
TAF RJOC 261105Z 2612/2718 17005KT 8000 FEW030 
     TEMPO 2618/2623 4000 BR 
     BECMG 2700/2703 25022KT 
     TEMPO 2703/2712 25028G40KT 
     BECMG 2712/2715 22012KT
       
RODN 261156Z AUTO 04007KT 10SM CLR 14/11 A3018 RMK AO2 SLP227 T01440112 10233 20144 52018 $
TAF RODN 260800Z 2608/2714 02009KT 9999 SCT035 QNH3010INS 
     BECMG 2623/2624 15012G18KT 9999 BKN035 QNH3004INS TX25/2705Z TN19/2621Z
       
RJFK 261200Z 30005KT 9999 FEW025 SCT/// 11/06 Q1020
TAF RJFK 261109Z 2612/2718 35005KT 9000 FEW005 
     BECMG 2700/2703 20010KT 
     BECMG 2709/2712 35006KT 
     TEMPO 2715/2718 4000 -SHRA BR FEW005 BKN008 BKN010
       
RJBB 261230Z 30014KT 9999 FEW030 13/06 Q1017 BECMG 34008KT
TAF AMD RJBB 261240Z 2612/2718 31012KT 9999 FEW030 
     BECMG 2616/2618 12004KT 
     BECMG 2700/2703 20014KT
       
RJKI 261200Z AUTO 35010KT 9999 NCD 18/11 Q1021
RORK 261200Z AUTO 01012KT 9999 SCT037 19/12 Q1021
RJFR 261200Z 26006KT 9999 FEW020 14/06 Q1019
TAF RJFR 261106Z 2612/2718 22009KT CAVOK 
     TEMPO 2706/2715 22015G25KT
       
RJOK 261100Z 34006KT 9999 FEW030 14/M00 Q1016
TAF RJOK 261107Z 2612/2718 34007KT CAVOK 
     BECMG 2700/2703 20010KT 
     BECMG 2709/2712 35007KT
       
RJNK 261200Z 36010KT 9999 FEW010 SCT020 FEW020CB BKN030 10/07 Q1016 RETS
TAF RJNK 261106Z 2612/2718 35008KT 9999 FEW015 BKN030 
     BECMG 2618/2620 17004KT 
     BECMG 2700/2703 23010KT 
     TEMPO 2703/2706 23018G30KT
       
RJFT 261200Z 17003KT 9000 FEW030 SCT/// 11/08 Q1020
TAF RJFT 261105Z 2612/2718 18005KT 9999 FEW030 
     BECMG 2612/2614 07005KT 
     BECMG 2622/2700 24013KT 
     TEMPO 2703/2709 23015G25KT 
     TEMPO 2715/2718 4000 -SHRA BR
       
RJCK 261100Z 29006KT 230V330 8000 FEW015 SCT030 BKN050 02/01 Q0999
TAF RJCK 261112Z 2612/2718 28008KT 9999 FEW020 BKN040 
     BECMG 2622/2700 29018G28KT 
     BECMG 2712/2715 32007KT
       
RJOM 261200Z 12008KT 9999 FEW035 12/06 Q1019
TAF RJOM 261106Z 2612/2718 28005KT 9999 FEW030 
     BECMG 2614/2616 12005KT 
     BECMG 2700/2703 24012KT 
     BECMG 2706/2709 20010KT
       
RJCM 261100Z 06003KT 9999 FEW015 SCT025 BKN050 02/M01 Q0999
TAF RJCM 261115Z 2612/2718 19007KT 9999 FEW008 BKN020 
     BECMG 2621/2623 29008KT 
     BECMG 2700/2703 33018G28KT 
     TEMPO 2703/2712 2000 -SHSN FEW005 BKN008 
     BECMG 2715/2718 27008KT
       
RJOH 261200Z 24006KT 9999 FEW030 SCT035 10/05 Q1018
TAF RJOH 261106Z 2612/2718 18006KT 9999 FEW030 
     TEMPO 2618/2623 4000 BR 
     BECMG 2700/2703 25016KT 
     TEMPO 2703/2709 25024G34KT
       
ROMD 261200Z AUTO 01009KT 9999 SCT038 19/12 Q1021
RJSM 261200Z 27017KT 9999 FEW015 SCT035 03/M08 Q1006
ROMY 261100Z 07005KT 9999 SCT031 18/13 Q1020
RJFM 261200Z 27010KT 9999 FEW030 SCT/// 14/07 Q1019
TAF RJFM 261108Z 2612/2718 27010KT 9999 FEW030 
     TEMPO 2706/2709 25015G25KT
       
RJFU 261200Z 13003KT 080V190 7000 NSC 12/11 Q1020
TAF RJFU 261110Z 2612/2718 30005KT 8000 FEW020 
     BECMG 2613/2615 16006KT 
     BECMG 2703/2706 22016KT 
     TEMPO 2703/2712 21018G28KT 
     BECMG 2715/2718 15005KT
       
ROAH 261230Z 05007KT 9999 FEW035 19/11 Q1022 RMK 1CU035 A3019
TAF ROAH 261105Z 2612/2718 06005KT 9999 FEW035 
     BECMG 2619/2621 11006KT 
     BECMG 2712/2715 17012KT
       
RJCN 260900Z VRB02KT 4900 BR FEW005 SCT015 BKN020 01/00 Q0999
RJBD 261000Z 29005KT 9999 FEW030 SCT080 14/07 Q1013
RJCC 261230Z 25005KT 220V320 9999 -SHSN FEW015 SCT050 BKN070 02/M05 Q1003 RMK 1ST015 3CU050 5AC070 A2964
TAF RJCC 261106Z 2612/2718 22005KT 9999 FEW015 BKN030 
     BECMG 2618/2620 31005KT 
     BECMG 2622/2700 31018KT 
     TEMPO 2700/2709 31020G30KT 
     BECMG 2709/2712 29007KT
       
RJAA 261230Z 33003KT 270V010 9999 FEW020 09/06 Q1008 NOSIG RMK 1CU020 A2979
TAF RJAA 261106Z 2612/2718 32008KT 9999 FEW030 
     BECMG 2703/2706 23012KT 
     TEMPO 2709/2712 23015G26KT
       
RJSN 261200Z 32016KT 9999 FEW040 SCT080 08/M02 Q1014
TAF RJSN 261105Z 2612/2718 30016KT 9999 FEW030 
     BECMG 2703/2706 22010KT 
     TEMPO 2709/2712 4000 SHRA BR 
     BECMG 2712/2715 32012KT 
     TEMPO 2712/2718 4000 SHRA BR FEW005 BKN008
       
RJCB 261100Z 36009KT 9999 FEW020 02/M02 Q0999
TAF RJCB 261108Z 2612/2718 30005KT 9999 FEW040 
     BECMG 2621/2623 31022G32KT 
     BECMG 2709/2712 31007KT
       
RJSR 261000Z 24009KT 200V280 9999 FEW030 SCT080 03/M05 Q1008
RJFO 261200Z 28006KT CAVOK 10/06 Q1018
TAF RJFO 261107Z 2612/2718 24004KT 9999 FEW030
       
RJOB 261200Z 27005KT 9999 FEW025 09/03 Q1017
TAF RJOB 261107Z 2612/2718 32005KT 9999 FEW030 SCT045 
     BECMG 2700/2703 22010KT
       
RJOO 261100Z 34007KT 9999 FEW030 13/04 Q1015 RMK 1CU030 A2999
TAF RJOO 261106Z 2612/2718 32004KT 9999 FEW030 
     BECMG 2700/2703 22012KT 
     BECMG 2709/2712 27006KT
       
RJTO 260800Z VRB02KT 9999 FEW020 SCT150 13/06 Q1007
RJFS 261200Z VRB01KT CAVOK 11/08 Q1019
TAF RJFS 261108Z 2612/2718 30005KT 9000 FEW015 
     BECMG 2614/2616 02005KT 
     TEMPO 2618/2622 3000 BR 
     BECMG 2700/2703 20016KT
       
RJCO 261100Z 27008KT 9999 FEW015 BKN050 BKN070 03/M06 Q1003
RJSS 261200Z 30014KT 9999 FEW030 09/M02 Q1008
TAF RJSS 261105Z 2612/2718 30018KT 9999 FEW020 
     TEMPO 2612/2618 30025G35KT 
     TEMPO 2621/2706 30025G35KT 
     BECMG 2709/2712 02007KT
       
RORS 261000Z 07007KT 040V100 9999 FEW033 19/13 Q1020
RJNY 261052Z 28011KT 9999 FEW025 14/00 Q1007 RMK 1CU025 A2976
RJSY 261200Z 28014KT 9999 FEW030 SCT070 07/M03 Q1012
RJBT 260927Z 27006KT 220V340 5000 -SHRA BR FEW000 SCT020 BKN030 09/09 Q1014 RMK 1ST000 3CU020 5CU030 A2997
RJOT 261200Z 27008KT 9999 FEW030 10/03 Q1018
TAF RJOT 261107Z 2612/2718 22006KT 9999 FEW030 
     BECMG 2700/2703 26016KT
       
RJFG 260900Z 29017KT 9999 FEW025 SCT/// 15/09 Q1019
RJTE 261005Z 22005KT 9999 FEW020 SCT230 11/07 Q1007 RMK 1CU020 A2976
RJOS 261200Z 35015G25KT 9999 FEW030 14/02 Q1017
RJTT 261230Z 34012KT 310V010 9999 FEW020 13/00 Q1009 NOSIG RMK 1CU020 A2980
TAF RJTT 261105Z 2612/2718 33010KT 9999 FEW030 
     BECMG 2700/2703 22018KT 
     TEMPO 2706/2712 22020G30KT
       
RJOR 261200Z 31016KT 8000 FEW020 BKN030 12/06 Q1017
RJNT 261213Z 36010KT 330V050 8000 -SHRA FEW005 SCT020 BKN040 09/06 Q1016 RMK 1ST005 3CU020 5SC040 A3001
TAF RJNT 261106Z 2612/2718 18005KT 9999 FEW030 
     BECMG 2703/2706 24014KT 
     TEMPO 2703/2712 24018G30KT
       
RJDT 261100Z 24004KT CAVOK 14/05 Q1018
RJCW 260900Z 23016KT 9999 FEW015 02/M03 Q0997
RJSC 261000Z 01009KT 9999 FEW007 SCT020 BKN030 07/04 Q1009
RJDC 261200Z VRB02KT CAVOK 13/11 Q1019
RJOY 261000Z 27010KT 9999 FEW060 14/07 Q1013
RJTY 261256Z AUTO 00000KT 10SM CLR 09/01 A2987 RMK AO2 SLP121 T00890008 FZRANO $
TAF RJTY 2605/2711 35009KT 9999 SCT150 QNH2977INS 
     BECMG 2701/2702 20015G25KT 9999 SKC QNH3000INS TX19/2705Z TN05/2621Z
       
ROYN 261200Z AUTO 08007KT 050V110 9999 FEW028 SCT038 OVC042 21/16 Q1021
RORY 261200Z AUTO 02005KT 350V060 9999 NCD 18/11 Q1022